sensor_id;sensor_type;location;lat;lon;timestamp;P1;durP1;ratioP1;P2;durP2;ratioP2
62475;SDS011;50739;45.670;11.936;2023-05-07T00:03:55;13.32;;;11.93;;
62475;SDS011;50739;45.670;11.936;2023-05-07T00:08:58;14.73;;;12.68;;
62475;SDS011;50739;45.670;11.936;2023-05-07T00:14:00;14.93;;;13.23;;
62475;SDS011;50739;45.670;11.936;2023-05-07T00:19:02;15.23;;;13.10;;
62475;SDS011;50739;45.670;11.936;2023-05-07T00:24:06;13.20;;;11.77;;
62475;SDS011;50739;45.670;11.936;2023-05-07T00:29:08;13.63;;;12.20;;
62475;SDS011;50739;45.670;11.936;2023-05-07T00:34:09;13.53;;;12.13;;
62475;SDS011;50739;45.670;11.936;2023-05-07T00:39:13;14.03;;;12.10;;
62475;SDS011;50739;45.670;11.936;2023-05-07T00:44:15;13.57;;;12.10;;
62475;SDS011;50739;45.670;11.936;2023-05-07T00:49:16;12.30;;;10.88;;
62475;SDS011;50739;45.670;11.936;2023-05-07T00:54:20;11.88;;;10.68;;
62475;SDS011;50739;45.670;11.936;2023-05-07T00:59:23;13.05;;;11.15;;
62475;SDS011;50739;45.670;11.936;2023-05-07T01:04:25;13.27;;;11.10;;
62475;SDS011;50739;45.670;11.936;2023-05-07T01:09:29;12.33;;;11.03;;
62475;SDS011;50739;45.670;11.936;2023-05-07T01:14:31;12.85;;;11.02;;
62475;SDS011;50739;45.670;11.936;2023-05-07T01:19:33;12.60;;;11.23;;
62475;SDS011;50739;45.670;11.936;2023-05-07T01:24:37;14.37;;;12.03;;
62475;SDS011;50739;45.670;11.936;2023-05-07T01:29:39;14.27;;;12.15;;
62475;SDS011;50739;45.670;11.936;2023-05-07T01:34:41;15.65;;;11.95;;
62475;SDS011;50739;45.670;11.936;2023-05-07T01:39:46;13.88;;;12.38;;
62475;SDS011;50739;45.670;11.936;2023-05-07T01:44:49;15.30;;;11.93;;
62475;SDS011;50739;45.670;11.936;2023-05-07T01:49:51;14.13;;;11.75;;
62475;SDS011;50739;45.670;11.936;2023-05-07T01:54:54;14.25;;;12.10;;
62475;SDS011;50739;45.670;11.936;2023-05-07T01:59:56;13.70;;;12.15;;
62475;SDS011;50739;45.670;11.936;2023-05-07T02:05:00;13.63;;;12.13;;
62475;SDS011;50739;45.670;11.936;2023-05-07T02:10:04;14.50;;;12.27;;
62475;SDS011;50739;45.670;11.936;2023-05-07T02:15:07;14.23;;;11.83;;
62475;SDS011;50739;45.670;11.936;2023-05-07T02:20:09;16.33;;;11.47;;
62475;SDS011;50739;45.670;11.936;2023-05-07T02:25:14;16.52;;;11.65;;
62475;SDS011;50739;45.670;11.936;2023-05-07T02:30:16;12.93;;;11.38;;
62475;SDS011;50739;45.670;11.936;2023-05-07T02:35:19;12.57;;;11.27;;
62475;SDS011;50739;45.670;11.936;2023-05-07T02:40:23;13.13;;;11.18;;
62475;SDS011;50739;45.670;11.936;2023-05-07T02:45:25;12.70;;;11.38;;
62475;SDS011;50739;45.670;11.936;2023-05-07T02:50:27;14.20;;;11.52;;
62475;SDS011;50739;45.670;11.936;2023-05-07T02:55:30;14.07;;;11.70;;
62475;SDS011;50739;45.670;11.936;2023-05-07T03:00:32;12.88;;;11.13;;
62475;SDS011;50739;45.670;11.936;2023-05-07T03:05:34;13.73;;;11.48;;
62475;SDS011;50739;45.670;11.936;2023-05-07T03:10:38;14.10;;;11.13;;
62475;SDS011;50739;45.670;11.936;2023-05-07T03:15:39;11.85;;;10.65;;
62475;SDS011;50739;45.670;11.936;2023-05-07T03:20:41;12.90;;;11.30;;
62475;SDS011;50739;45.670;11.936;2023-05-07T03:25:45;12.57;;;10.97;;
62475;SDS011;50739;45.670;11.936;2023-05-07T03:30:47;14.15;;;10.45;;
62475;SDS011;50739;45.670;11.936;2023-05-07T03:35:48;11.70;;;10.50;;
62475;SDS011;50739;45.670;11.936;2023-05-07T03:40:52;12.60;;;11.00;;
62475;SDS011;50739;45.670;11.936;2023-05-07T03:45:53;13.68;;;11.32;;
62475;SDS011;50739;45.670;11.936;2023-05-07T03:50:55;11.70;;;10.13;;
62475;SDS011;50739;45.670;11.936;2023-05-07T03:55:59;12.23;;;10.40;;
62475;SDS011;50739;45.670;11.936;2023-05-07T04:01:01;11.75;;;10.07;;
62475;SDS011;50739;45.670;11.936;2023-05-07T04:06:03;12.63;;;10.87;;
62475;SDS011;50739;45.670;11.936;2023-05-07T04:11:07;12.27;;;10.38;;
62475;SDS011;50739;45.670;11.936;2023-05-07T04:16:09;12.90;;;10.02;;
62475;SDS011;50739;45.670;11.936;2023-05-07T04:21:13;11.38;;;9.90;;
62475;SDS011;50739;45.670;11.936;2023-05-07T04:26:17;11.60;;;9.60;;
62475;SDS011;50739;45.670;11.936;2023-05-07T04:31:19;10.93;;;9.80;;
62475;SDS011;50739;45.670;11.936;2023-05-07T04:36:21;12.27;;;9.53;;
62475;SDS011;50739;45.670;11.936;2023-05-07T04:41:24;13.85;;;9.63;;
62475;SDS011;50739;45.670;11.936;2023-05-07T04:46:26;11.02;;;9.93;;
62475;SDS011;50739;45.670;11.936;2023-05-07T04:51:28;12.32;;;9.60;;
62475;SDS011;50739;45.670;11.936;2023-05-07T04:56:34;12.13;;;9.87;;
62475;SDS011;50739;45.670;11.936;2023-05-07T05:01:35;11.63;;;9.40;;
62475;SDS011;50739;45.670;11.936;2023-05-07T05:06:37;11.90;;;9.65;;
62475;SDS011;50739;45.670;11.936;2023-05-07T05:11:41;12.20;;;10.23;;
62475;SDS011;50739;45.670;11.936;2023-05-07T05:16:43;13.13;;;10.85;;
62475;SDS011;50739;45.670;11.936;2023-05-07T05:21:44;12.30;;;11.05;;
62475;SDS011;50739;45.670;11.936;2023-05-07T05:26:48;14.30;;;11.07;;
62475;SDS011;50739;45.670;11.936;2023-05-07T05:31:49;13.07;;;11.05;;
62475;SDS011;50739;45.670;11.936;2023-05-07T05:36:51;12.75;;;10.10;;
62475;SDS011;50739;45.670;11.936;2023-05-07T05:41:54;10.23;;;8.50;;
62475;SDS011;50739;45.670;11.936;2023-05-07T05:46:56;9.53;;;8.50;;
62475;SDS011;50739;45.670;11.936;2023-05-07T05:51:59;10.23;;;9.17;;
62475;SDS011;50739;45.670;11.936;2023-05-07T05:57:02;10.93;;;8.93;;
62475;SDS011;50739;45.670;11.936;2023-05-07T06:02:05;10.52;;;9.25;;
62475;SDS011;50739;45.670;11.936;2023-05-07T06:07:07;13.00;;;9.60;;
62475;SDS011;50739;45.670;11.936;2023-05-07T06:12:11;10.13;;;8.98;;
62475;SDS011;50739;45.670;11.936;2023-05-07T06:17:12;9.77;;;8.83;;
62475;SDS011;50739;45.670;11.936;2023-05-07T06:22:14;10.83;;;8.37;;
62475;SDS011;50739;45.670;11.936;2023-05-07T06:27:17;10.10;;;8.97;;
62475;SDS011;50739;45.670;11.936;2023-05-07T06:32:19;10.77;;;9.52;;
62475;SDS011;50739;45.670;11.936;2023-05-07T06:37:21;10.07;;;8.63;;
62475;SDS011;50739;45.670;11.936;2023-05-07T06:42:24;10.23;;;8.20;;
62475;SDS011;50739;45.670;11.936;2023-05-07T06:47:26;9.75;;;8.40;;
62475;SDS011;50739;45.670;11.936;2023-05-07T06:52:28;11.25;;;8.63;;
62475;SDS011;50739;45.670;11.936;2023-05-07T06:57:31;9.02;;;8.13;;
62475;SDS011;50739;45.670;11.936;2023-05-07T07:02:33;11.98;;;7.88;;
62475;SDS011;50739;45.670;11.936;2023-05-07T07:07:35;7.68;;;6.85;;
62475;SDS011;50739;45.670;11.936;2023-05-07T07:12:38;8.15;;;7.00;;
62475;SDS011;50739;45.670;11.936;2023-05-07T07:17:40;7.70;;;6.70;;
62475;SDS011;50739;45.670;11.936;2023-05-07T07:22:42;6.60;;;5.93;;
62475;SDS011;50739;45.670;11.936;2023-05-07T07:27:45;7.30;;;6.20;;
62475;SDS011;50739;45.670;11.936;2023-05-07T07:32:47;9.50;;;6.03;;
62475;SDS011;50739;45.670;11.936;2023-05-07T07:37:49;6.50;;;5.90;;
62475;SDS011;50739;45.670;11.936;2023-05-07T07:42:52;7.10;;;6.40;;
62475;SDS011;50739;45.670;11.936;2023-05-07T07:47:54;8.00;;;6.60;;
62475;SDS011;50739;45.670;11.936;2023-05-07T07:52:56;7.23;;;6.50;;
62475;SDS011;50739;45.670;11.936;2023-05-07T07:58:00;7.80;;;7.00;;
62475;SDS011;50739;45.670;11.936;2023-05-07T08:03:01;6.60;;;6.00;;
62475;SDS011;50739;45.670;11.936;2023-05-07T08:08:03;6.93;;;6.20;;
62475;SDS011;50739;45.670;11.936;2023-05-07T08:13:07;5.57;;;4.30;;
62475;SDS011;50739;45.670;11.936;2023-05-07T08:18:09;5.60;;;4.57;;
62475;SDS011;50739;45.670;11.936;2023-05-07T08:23:10;5.67;;;4.77;;
62475;SDS011;50739;45.670;11.936;2023-05-07T08:28:14;6.03;;;4.90;;
62475;SDS011;50739;45.670;11.936;2023-05-07T08:33:16;5.72;;;4.95;;
62475;SDS011;50739;45.670;11.936;2023-05-07T08:38:17;5.18;;;4.68;;
62475;SDS011;50739;45.670;11.936;2023-05-07T08:43:21;7.68;;;5.03;;
62475;SDS011;50739;45.670;11.936;2023-05-07T08:48:24;5.32;;;4.70;;
62475;SDS011;50739;45.670;11.936;2023-05-07T08:53:26;6.72;;;5.22;;
62475;SDS011;50739;45.670;11.936;2023-05-07T08:58:30;6.50;;;4.68;;
62475;SDS011;50739;45.670;11.936;2023-05-07T09:03:32;4.80;;;4.40;;
62475;SDS011;50739;45.670;11.936;2023-05-07T09:08:33;6.87;;;4.80;;
62475;SDS011;50739;45.670;11.936;2023-05-07T09:13:37;5.45;;;4.95;;
62475;SDS011;50739;45.670;11.936;2023-05-07T09:18:42;6.60;;;4.65;;
62475;SDS011;50739;45.670;11.936;2023-05-07T09:23:44;5.47;;;4.32;;
62475;SDS011;50739;45.670;11.936;2023-05-07T09:28:48;5.20;;;4.70;;
62475;SDS011;50739;45.670;11.936;2023-05-07T09:33:50;6.97;;;4.70;;
62475;SDS011;50739;45.670;11.936;2023-05-07T09:38:55;4.82;;;4.30;;
62475;SDS011;50739;45.670;11.936;2023-05-07T09:44:02;5.28;;;4.78;;
62475;SDS011;50739;45.670;11.936;2023-05-07T09:49:04;5.77;;;4.30;;
62475;SDS011;50739;45.670;11.936;2023-05-07T09:54:09;5.27;;;4.30;;
62475;SDS011;50739;45.670;11.936;2023-05-07T09:59:14;5.53;;;5.03;;
62475;SDS011;50739;45.670;11.936;2023-05-07T10:04:17;5.68;;;5.18;;
62475;SDS011;50739;45.670;11.936;2023-05-07T10:09:21;5.93;;;4.80;;
62475;SDS011;50739;45.670;11.936;2023-05-07T10:14:25;6.23;;;5.13;;
62475;SDS011;50739;45.670;11.936;2023-05-07T10:19:29;7.00;;;5.22;;
62475;SDS011;50739;45.670;11.936;2023-05-07T10:24:33;5.90;;;5.05;;
62475;SDS011;50739;45.670;11.936;2023-05-07T10:29:49;5.95;;;5.30;;
62475;SDS011;50739;45.670;11.936;2023-05-07T10:35:00;5.23;;;4.73;;
62475;SDS011;50739;45.670;11.936;2023-05-07T10:40:04;4.97;;;4.45;;
62475;SDS011;50739;45.670;11.936;2023-05-07T10:45:12;5.90;;;4.50;;
62475;SDS011;50739;45.670;11.936;2023-05-07T10:50:20;4.85;;;4.38;;
62475;SDS011;50739;45.670;11.936;2023-05-07T10:55:23;5.10;;;4.60;;
62475;SDS011;50739;45.670;11.936;2023-05-07T11:00:55;4.90;;;4.45;;
62475;SDS011;50739;45.670;11.936;2023-05-07T11:06:11;5.63;;;4.90;;
62475;SDS011;50739;45.670;11.936;2023-05-07T11:11:14;5.80;;;4.90;;
62475;SDS011;50739;45.670;11.936;2023-05-07T11:16:19;6.15;;;5.50;;
62475;SDS011;50739;45.670;11.936;2023-05-07T11:21:31;5.80;;;4.88;;
62475;SDS011;50739;45.670;11.936;2023-05-07T11:26:46;5.85;;;5.28;;
62475;SDS011;50739;45.670;11.936;2023-05-07T11:31:51;5.47;;;4.97;;
62475;SDS011;50739;45.670;11.936;2023-05-07T11:36:54;6.10;;;5.22;;
62475;SDS011;50739;45.670;11.936;2023-05-07T11:41:57;6.93;;;5.80;;
62475;SDS011;50739;45.670;11.936;2023-05-07T11:47:01;5.43;;;4.88;;
62475;SDS011;50739;45.670;11.936;2023-05-07T11:52:03;7.10;;;4.93;;
62475;SDS011;50739;45.670;11.936;2023-05-07T11:57:05;5.72;;;4.97;;
62475;SDS011;50739;45.670;11.936;2023-05-07T12:02:08;6.63;;;5.10;;
62475;SDS011;50739;45.670;11.936;2023-05-07T12:07:11;6.18;;;5.30;;
62475;SDS011;50739;45.670;11.936;2023-05-07T12:12:13;6.67;;;5.70;;
62475;SDS011;50739;45.670;11.936;2023-05-07T12:17:18;7.10;;;6.07;;
62475;SDS011;50739;45.670;11.936;2023-05-07T12:22:21;8.40;;;5.78;;
62475;SDS011;50739;45.670;11.936;2023-05-07T12:27:23;7.33;;;5.80;;
62475;SDS011;50739;45.670;11.936;2023-05-07T12:32:26;7.55;;;6.07;;
62475;SDS011;50739;45.670;11.936;2023-05-07T12:37:28;6.40;;;5.53;;
62475;SDS011;50739;45.670;11.936;2023-05-07T12:42:32;6.80;;;6.07;;
62475;SDS011;50739;45.670;11.936;2023-05-07T12:47:35;6.87;;;6.00;;
62475;SDS011;50739;45.670;11.936;2023-05-07T12:52:38;6.22;;;5.15;;
62475;SDS011;50739;45.670;11.936;2023-05-07T12:57:41;6.30;;;5.70;;
62475;SDS011;50739;45.670;11.936;2023-05-07T13:02:45;6.13;;;5.53;;
62475;SDS011;50739;45.670;11.936;2023-05-07T13:07:52;6.10;;;5.50;;
62475;SDS011;50739;45.670;11.936;2023-05-07T13:12:54;6.10;;;5.30;;
62475;SDS011;50739;45.670;11.936;2023-05-07T13:17:58;6.83;;;6.00;;
62475;SDS011;50739;45.670;11.936;2023-05-07T13:23:00;6.80;;;6.10;;
62475;SDS011;50739;45.670;11.936;2023-05-07T13:28:04;9.05;;;6.80;;
62475;SDS011;50739;45.670;11.936;2023-05-07T13:33:07;8.18;;;7.25;;
62475;SDS011;50739;45.670;11.936;2023-05-07T13:38:09;7.60;;;6.65;;
62475;SDS011;50739;45.670;11.936;2023-05-07T13:43:11;7.85;;;7.07;;
62475;SDS011;50739;45.670;11.936;2023-05-07T13:48:14;9.30;;;7.60;;
62475;SDS011;50739;45.670;11.936;2023-05-07T13:53:16;7.72;;;6.60;;
62475;SDS011;50739;45.670;11.936;2023-05-07T13:58:18;9.30;;;6.70;;
62475;SDS011;50739;45.670;11.936;2023-05-07T14:03:30;8.80;;;7.20;;
62475;SDS011;50739;45.670;11.936;2023-05-07T14:08:33;7.28;;;6.68;;
62475;SDS011;50739;45.670;11.936;2023-05-07T14:13:35;7.85;;;7.05;;
62475;SDS011;50739;45.670;11.936;2023-05-07T14:18:38;7.90;;;6.75;;
62475;SDS011;50739;45.670;11.936;2023-05-07T14:23:40;8.52;;;7.30;;
62475;SDS011;50739;45.670;11.936;2023-05-07T14:28:42;6.78;;;6.13;;
62475;SDS011;50739;45.670;11.936;2023-05-07T14:33:47;7.63;;;6.83;;
62475;SDS011;50739;45.670;11.936;2023-05-07T14:38:49;7.70;;;6.90;;
62475;SDS011;50739;45.670;11.936;2023-05-07T14:43:51;10.83;;;7.37;;
62475;SDS011;50739;45.670;11.936;2023-05-07T14:48:54;7.38;;;6.40;;
62475;SDS011;50739;45.670;11.936;2023-05-07T14:53:58;8.07;;;7.28;;
62475;SDS011;50739;45.670;11.936;2023-05-07T14:59:00;6.67;;;6.07;;
62475;SDS011;50739;45.670;11.936;2023-05-07T15:04:04;7.90;;;7.20;;
62475;SDS011;50739;45.670;11.936;2023-05-07T15:09:06;7.47;;;6.78;;
62475;SDS011;50739;45.670;11.936;2023-05-07T15:14:08;6.82;;;6.13;;
62475;SDS011;50739;45.670;11.936;2023-05-07T15:19:15;7.85;;;6.82;;
62475;SDS011;50739;45.670;11.936;2023-05-07T15:24:19;7.50;;;6.80;;
62475;SDS011;50739;45.670;11.936;2023-05-07T15:29:21;7.30;;;6.50;;
62475;SDS011;50739;45.670;11.936;2023-05-07T15:34:24;7.40;;;6.70;;
62475;SDS011;50739;45.670;11.936;2023-05-07T15:39:26;7.30;;;6.60;;
62475;SDS011;50739;45.670;11.936;2023-05-07T15:44:28;6.80;;;6.20;;
62475;SDS011;50739;45.670;11.936;2023-05-07T15:49:33;4.35;;;3.80;;
62475;SDS011;50739;45.670;11.936;2023-05-07T15:54:35;4.45;;;4.03;;
62475;SDS011;50739;45.670;11.936;2023-05-07T15:59:37;4.15;;;3.80;;
62475;SDS011;50739;45.670;11.936;2023-05-07T16:04:41;4.70;;;3.80;;
62475;SDS011;50739;45.670;11.936;2023-05-07T16:09:43;5.25;;;3.60;;
62475;SDS011;50739;45.670;11.936;2023-05-07T16:14:44;5.70;;;4.43;;
62475;SDS011;50739;45.670;11.936;2023-05-07T16:19:48;4.95;;;3.50;;
62475;SDS011;50739;45.670;11.936;2023-05-07T16:24:50;4.63;;;3.70;;
62475;SDS011;50739;45.670;11.936;2023-05-07T16:29:55;4.18;;;3.50;;
62475;SDS011;50739;45.670;11.936;2023-05-07T16:34:58;4.10;;;3.70;;
62475;SDS011;50739;45.670;11.936;2023-05-07T16:40:00;4.40;;;3.70;;
62475;SDS011;50739;45.670;11.936;2023-05-07T16:45:06;6.85;;;5.70;;
62475;SDS011;50739;45.670;11.936;2023-05-07T16:50:12;22.07;;;13.73;;
62475;SDS011;50739;45.670;11.936;2023-05-07T18:05:02;4.38;;;3.22;;
62475;SDS011;50739;45.670;11.936;2023-05-07T18:10:05;3.30;;;3.00;;
62475;SDS011;50739;45.670;11.936;2023-05-07T18:15:08;3.50;;;3.20;;
62475;SDS011;50739;45.670;11.936;2023-05-07T18:20:12;5.00;;;3.50;;
62475;SDS011;50739;45.670;11.936;2023-05-07T18:25:14;4.32;;;3.53;;
62475;SDS011;50739;45.670;11.936;2023-05-07T18:30:16;4.80;;;3.40;;
62475;SDS011;50739;45.670;11.936;2023-05-07T18:35:20;3.50;;;3.08;;
62475;SDS011;50739;45.670;11.936;2023-05-07T18:40:23;4.25;;;2.80;;
62475;SDS011;50739;45.670;11.936;2023-05-07T18:45:25;5.10;;;3.20;;
62475;SDS011;50739;45.670;11.936;2023-05-07T18:50:29;3.43;;;3.13;;
62475;SDS011;50739;45.670;11.936;2023-05-07T18:55:31;5.80;;;3.20;;
62475;SDS011;50739;45.670;11.936;2023-05-07T19:00:34;4.50;;;3.90;;
62475;SDS011;50739;45.670;11.936;2023-05-07T19:05:37;4.65;;;4.18;;
62475;SDS011;50739;45.670;11.936;2023-05-07T19:10:39;5.13;;;3.93;;
62475;SDS011;50739;45.670;11.936;2023-05-07T19:15:42;5.32;;;3.67;;
62475;SDS011;50739;45.670;11.936;2023-05-07T19:20:47;6.28;;;3.50;;
62475;SDS011;50739;45.670;11.936;2023-05-07T19:25:49;5.80;;;3.58;;
62475;SDS011;50739;45.670;11.936;2023-05-07T19:30:51;3.50;;;3.20;;
62475;SDS011;50739;45.670;11.936;2023-05-07T19:35:55;4.03;;;3.38;;
62475;SDS011;50739;45.670;11.936;2023-05-07T19:40:59;4.82;;;3.10;;
62475;SDS011;50739;45.670;11.936;2023-05-07T19:46:02;3.20;;;2.90;;
62475;SDS011;50739;45.670;11.936;2023-05-07T19:51:06;4.20;;;2.80;;
62475;SDS011;50739;45.670;11.936;2023-05-07T19:56:08;5.80;;;2.80;;
62475;SDS011;50739;45.670;11.936;2023-05-07T20:01:12;5.20;;;3.10;;
62475;SDS011;50739;45.670;11.936;2023-05-07T20:06:15;3.88;;;3.55;;
62475;SDS011;50739;45.670;11.936;2023-05-07T20:11:18;5.18;;;4.28;;
62475;SDS011;50739;45.670;11.936;2023-05-07T20:16:21;7.72;;;4.80;;
62475;SDS011;50739;45.670;11.936;2023-05-07T20:21:25;4.97;;;4.30;;
62475;SDS011;50739;45.670;11.936;2023-05-07T20:26:27;6.23;;;4.77;;
62475;SDS011;50739;45.670;11.936;2023-05-07T20:31:29;7.35;;;4.78;;
62475;SDS011;50739;45.670;11.936;2023-05-07T20:36:36;5.05;;;4.57;;
62475;SDS011;50739;45.670;11.936;2023-05-07T20:41:38;6.25;;;4.53;;
62475;SDS011;50739;45.670;11.936;2023-05-07T20:46:40;6.28;;;4.20;;
62475;SDS011;50739;45.670;11.936;2023-05-07T20:51:45;5.77;;;4.80;;
62475;SDS011;50739;45.670;11.936;2023-05-07T20:56:48;6.07;;;4.73;;
62475;SDS011;50739;45.670;11.936;2023-05-07T21:01:50;7.72;;;6.40;;
62475;SDS011;50739;45.670;11.936;2023-05-07T21:06:54;6.88;;;6.03;;
62475;SDS011;50739;45.670;11.936;2023-05-07T21:11:56;10.15;;;9.02;;
62475;SDS011;50739;45.670;11.936;2023-05-07T21:16:59;13.25;;;9.82;;
62475;SDS011;50739;45.670;11.936;2023-05-07T21:22:02;12.02;;;10.18;;
62475;SDS011;50739;45.670;11.936;2023-05-07T21:27:04;10.90;;;9.73;;
62475;SDS011;50739;45.670;11.936;2023-05-07T21:32:07;11.63;;;9.47;;
62475;SDS011;50739;45.670;11.936;2023-05-07T21:37:11;10.63;;;9.38;;
62475;SDS011;50739;45.670;11.936;2023-05-07T21:42:15;9.37;;;8.37;;
62475;SDS011;50739;45.670;11.936;2023-05-07T21:47:20;8.37;;;7.57;;
62475;SDS011;50739;45.670;11.936;2023-05-07T21:52:24;9.23;;;7.50;;
62475;SDS011;50739;45.670;11.936;2023-05-07T21:57:27;10.75;;;7.50;;
62475;SDS011;50739;45.670;11.936;2023-05-07T22:02:29;9.30;;;7.30;;
62475;SDS011;50739;45.670;11.936;2023-05-07T22:07:32;8.20;;;7.20;;
62475;SDS011;50739;45.670;11.936;2023-05-07T22:12:35;8.07;;;7.25;;
62475;SDS011;50739;45.670;11.936;2023-05-07T22:17:37;7.83;;;7.03;;
62475;SDS011;50739;45.670;11.936;2023-05-07T22:22:47;8.55;;;7.30;;
62475;SDS011;50739;45.670;11.936;2023-05-07T22:27:50;8.93;;;7.77;;
62475;SDS011;50739;45.670;11.936;2023-05-07T22:32:53;9.00;;;7.68;;
62475;SDS011;50739;45.670;11.936;2023-05-07T22:37:57;9.00;;;7.47;;
62475;SDS011;50739;45.670;11.936;2023-05-07T22:42:59;8.75;;;7.85;;
62475;SDS011;50739;45.670;11.936;2023-05-07T22:48:01;8.40;;;7.60;;
62475;SDS011;50739;45.670;11.936;2023-05-07T22:53:05;8.03;;;7.23;;
62475;SDS011;50739;45.670;11.936;2023-05-07T22:58:07;8.10;;;7.03;;
62475;SDS011;50739;45.670;11.936;2023-05-07T23:03:10;8.50;;;6.50;;
62475;SDS011;50739;45.670;11.936;2023-05-07T23:08:14;8.00;;;6.50;;
62475;SDS011;50739;45.670;11.936;2023-05-07T23:13:16;9.13;;;6.80;;
62475;SDS011;50739;45.670;11.936;2023-05-07T23:18:18;13.10;;;6.90;;
62475;SDS011;50739;45.670;11.936;2023-05-07T23:23:22;8.23;;;6.63;;
62475;SDS011;50739;45.670;11.936;2023-05-07T23:28:24;7.57;;;6.57;;
62475;SDS011;50739;45.670;11.936;2023-05-07T23:33:26;7.93;;;6.18;;
62475;SDS011;50739;45.670;11.936;2023-05-07T23:38:44;6.45;;;5.75;;
62475;SDS011;50739;45.670;11.936;2023-05-07T23:43:47;8.63;;;6.35;;
62475;SDS011;50739;45.670;11.936;2023-05-07T23:48:49;6.80;;;6.10;;
62475;SDS011;50739;45.670;11.936;2023-05-07T23:53:53;6.43;;;5.80;;
62475;SDS011;50739;45.670;11.936;2023-05-07T23:58:56;5.80;;;5.20;;
